createdAt,value
2023-02-14T00:08:06.264Z,108.63
2023-02-14T00:18:11.726Z,105.33
2023-02-14T00:28:15.596Z,108.00
2023-02-14T00:38:20.801Z,110.40
2023-02-14T00:48:24.501Z,107.50
2023-02-14T00:58:29.819Z,104.07
2023-02-14T01:08:33.596Z,102.73
2023-02-14T01:18:42.056Z,110.80
2023-02-14T01:28:47.175Z,100.37
2023-02-14T01:38:56.873Z,100.27
2023-02-14T01:49:05.805Z,106.27
2023-02-14T01:59:18.216Z,102.10
2023-02-14T02:09:27.638Z,108.70
2023-02-14T02:20:32.652Z,100.97
2023-02-14T02:31:10.858Z,108.87
2023-02-14T02:41:27.849Z,107.93
2023-02-14T02:51:58.417Z,103.90
2023-02-14T03:02:11.388Z,105.40
2023-02-14T03:12:26.670Z,106.87
2023-02-14T03:22:45.765Z,104.80
2023-02-14T03:32:57.193Z,104.20
2023-02-14T03:43:09.044Z,105.47
2023-02-14T03:53:14.399Z,112.03
2023-02-14T04:03:21.876Z,109.67
2023-02-14T04:13:25.675Z,112.87
2023-02-14T04:23:30.983Z,111.23
2023-02-14T04:33:35.600Z,109.80
2023-02-14T04:43:40.920Z,111.23
2023-02-14T04:53:44.747Z,112.33
2023-02-14T05:03:49.993Z,109.80
2023-02-14T05:13:53.866Z,108.57
2023-02-14T05:23:59.155Z,112.00
2023-02-14T05:34:02.998Z,107.87
2023-02-14T05:44:08.257Z,109.13
2023-02-14T05:54:11.918Z,108.67
2023-02-14T06:04:17.243Z,111.17
2023-02-14T06:14:24.207Z,115.17
2023-02-14T06:24:29.569Z,108.47
2023-02-14T06:34:33.755Z,109.63
2023-02-14T06:44:38.960Z,107.43
2023-02-14T06:54:42.764Z,112.23
2023-02-14T07:04:48.043Z,109.70
2023-02-14T07:14:51.786Z,105.27
2023-02-14T07:24:56.788Z,108.87
2023-02-14T07:35:00.524Z,105.20
2023-02-14T07:45:20.724Z,103.07
2023-02-14T07:55:26.075Z,102.57
2023-02-14T08:05:31.682Z,97.37
2023-02-14T08:15:54.082Z,99.87
2023-02-14T08:25:59.684Z,99.73
2023-02-14T08:36:04.017Z,105.07
2023-02-14T08:46:09.193Z,100.57
2023-02-14T08:56:15.755Z,103.97
2023-02-14T09:06:20.965Z,108.27
2023-02-14T09:16:26.271Z,100.60
2023-02-14T09:26:31.577Z,106.07
2023-02-14T09:36:35.701Z,103.50
2023-02-14T09:46:48.295Z,99.03
2023-02-14T09:56:58.320Z,101.30
2023-02-14T10:07:15.709Z,96.77
2023-02-14T10:17:29.502Z,100.40
2023-02-14T10:27:39.687Z,101.20
2023-02-14T10:38:00.331Z,103.80
2023-02-14T10:48:16.807Z,101.90
2023-02-14T10:58:23.792Z,98.23
2023-02-14T11:08:34.418Z,96.83
2023-02-14T11:18:40.132Z,104.80
2023-02-14T11:28:55.925Z,104.23
2023-02-14T11:39:08.899Z,103.50
2023-02-14T11:49:28.845Z,104.40
2023-02-14T11:59:38.549Z,100.33
2023-02-14T12:09:44.432Z,95.43
2023-02-14T12:19:55.001Z,95.30
2023-02-14T12:30:08.566Z,90.80
2023-02-14T12:40:22.025Z,96.87
2023-02-14T12:50:39.917Z,92.10
2023-02-14T13:00:55.906Z,94.50
2023-02-14T13:11:12.232Z,90.03
2023-02-14T13:21:19.834Z,95.37
2023-02-14T13:31:25.740Z,94.00
2023-02-14T13:41:30.473Z,92.77
2023-02-14T13:51:50.842Z,95.80
2023-02-14T14:01:54.859Z,91.07
2023-02-14T14:12:02.374Z,96.97
2023-02-14T14:22:10.376Z,99.73
2023-02-14T14:32:22.699Z,93.03
2023-02-14T14:42:30.694Z,94.73
2023-02-14T14:52:38.624Z,94.03
2023-02-14T15:02:42.373Z,100.17
2023-02-14T15:13:04.845Z,93.30
2023-02-14T15:23:09.145Z,97.23
2023-02-14T15:33:14.459Z,96.10
2023-02-14T15:43:30.944Z,98.37
2023-02-14T15:53:42.666Z,90.37
2023-02-14T16:03:57.224Z,102.47
2023-02-14T16:14:30.404Z,102.67
2023-02-14T16:24:36.054Z,96.80
2023-02-14T16:34:41.683Z,95.53
2023-02-14T16:44:45.738Z,125.30
2023-02-14T16:54:50.920Z,102.07
2023-02-14T17:04:54.710Z,109.00
2023-02-14T17:15:06.073Z,108.17
2023-02-14T17:25:11.272Z,115.67
2023-02-14T17:35:16.631Z,129.13
2023-02-14T17:45:20.537Z,105.00
2023-02-14T17:55:25.819Z,106.53
2023-02-14T18:05:29.489Z,111.37
2023-02-14T18:15:35.160Z,103.27
2023-02-14T18:25:38.828Z,108.40
2023-02-14T18:35:43.804Z,107.47
2023-02-14T18:45:47.641Z,101.10
2023-02-14T18:55:52.948Z,100.73
2023-02-14T19:06:00.405Z,112.40
2023-02-14T19:16:12.579Z,99.83
2023-02-14T19:26:20.590Z,102.57
2023-02-14T19:36:25.965Z,106.03
2023-02-14T19:46:30.872Z,103.70
2023-02-14T19:56:38.655Z,100.80
2023-02-14T20:06:43.683Z,99.70
2023-02-14T20:16:50.411Z,105.47
2023-02-14T20:26:54.845Z,106.23
2023-02-14T20:37:00.482Z,105.13
2023-02-14T20:47:04.247Z,113.20
2023-02-14T20:57:09.449Z,108.53
2023-02-14T21:07:13.116Z,105.47
2023-02-14T21:17:18.677Z,112.53
2023-02-14T21:27:22.489Z,112.20
2023-02-14T21:37:28.060Z,127.70
2023-02-14T21:47:31.921Z,127.97
2023-02-14T21:57:37.121Z,126.83
2023-02-14T22:07:40.707Z,128.83
2023-02-14T22:17:45.901Z,132.57
2023-02-14T22:27:49.623Z,133.67
2023-02-14T22:37:54.728Z,133.77
2023-02-14T22:47:58.392Z,132.30
2023-02-14T22:58:04.616Z,136.03
2023-02-14T23:08:08.236Z,152.50
2023-02-14T23:18:32.064Z,135.70
2023-02-14T23:28:36.014Z,132.00
2023-02-14T23:38:41.136Z,130.20
2023-02-14T23:48:45.256Z,130.23
2023-02-14T23:58:50.429Z,101.37
